»·PEaware :: SWA862 KPHX-KLAX

SWA862 :: KPHX-KLAX

FLIGHT INFORMATION

Flight Status: Arrived
Operator:
Southwest Airlines
More flights by this operator :: More flights under this callsign
Pilot: Maximilliano F. (23467)
Aircraft: BOEING 737-800
(B738)
More flights by this aircraft type
Origin: KPHX Phoenix Sky Harbor Intl
United States
Destination: KLAX Los Angeles Intl
United States
More flights between these airports :: More routes between these airports
Route: KEENS2 MESSI ESTWD HLYWD1
File this flight plan on PilotEdge
Remarks: RMK / SIMBRIEF
Altitude:
(Current/Filed)
34,000ft
Speed:
(Current/Filed)
458kts
Departed: 20-Oct-19 07:47 PM
Arrived: 20-Oct-19 08:45 PM
Distance/Time
Traveled:
320nm/0:58
Distance/Time
To Go:
Arrived

Flight Plot

Page will automatically refresh every two minutes.

Flight plan parsing failed; only flown route is shown


Map Options




Map Legend


Flown Route
Filed Route
Departure Airport
Arrival Airport
Navaid (VOR, NDB)
Fix

Horizontal Profiles

Position Reports

Time Latitude Longitude Heading Altitude Ground
Speed
20-Oct-19 19:23 33.433911 -111.999971 100 1139ft 0kts
20-Oct-19 19:24 33.433911 -111.999971 100 1138ft 0kts
20-Oct-19 19:25 33.433911 -111.999971 100 1138ft 0kts
20-Oct-19 19:26 33.433911 -111.999971 100 1138ft 0kts
20-Oct-19 19:27 33.433911 -111.999971 100 1138ft 0kts
20-Oct-19 19:28 33.433911 -111.999971 100 1138ft 0kts
20-Oct-19 19:29 33.433911 -111.999971 100 1138ft 0kts
20-Oct-19 19:30 33.433911 -111.999972 100 1138ft 0kts
20-Oct-19 19:31 33.433911 -111.999972 100 1139ft 0kts
20-Oct-19 19:32 33.433911 -111.999972 100 1139ft 0kts
20-Oct-19 19:33 33.433911 -111.999972 100 1139ft 0kts
20-Oct-19 19:34 33.433911 -111.999972 100 1139ft 0kts
20-Oct-19 19:35 33.434066 -112.000342 153 1139ft 2kts
20-Oct-19 19:36 33.434246 -112.000383 179 1139ft 0kts
20-Oct-19 19:37 33.434246 -112.000383 179 1139ft 0kts
20-Oct-19 19:38 33.434144 -112.000382 179 1139ft 3kts
20-Oct-19 19:39 33.433198 -111.999918 145 1139ft 0kts
20-Oct-19 19:40 33.432820 -111.996592 90 1139ft 18kts
20-Oct-19 19:41 33.432179 -111.992529 216 1139ft 7kts
20-Oct-19 19:42 33.432014 -111.992711 224 1139ft 0kts
20-Oct-19 19:43 33.432014 -111.992711 224 1139ft 0kts
20-Oct-19 19:44 33.431861 -111.992888 224 1139ft 5kts
20-Oct-19 19:45 33.431062 -111.994390 264 1139ft 11kts
20-Oct-19 19:46 33.430771 -112.031856 266 1872ft 189kts
20-Oct-19 19:47 33.418799 -112.103709 253 4313ft 265kts
20-Oct-19 19:48 33.395563 -112.192462 268 8099ft 287kts
20-Oct-19 19:49 33.404251 -112.289953 283 11452ft 315kts
20-Oct-19 19:50 33.419937 -112.395045 284 15339ft 325kts
20-Oct-19 19:51 33.435765 -112.502059 285 18871ft 335kts
20-Oct-19 19:52 33.450582 -112.616429 278 20898ft 361kts
20-Oct-19 19:53 33.451962 -112.734408 277 21686ft 362kts
20-Oct-19 19:54 33.471139 -112.851696 296 24435ft 364kts
20-Oct-19 19:55 33.510547 -112.964756 297 27139ft 374kts
20-Oct-19 19:56 33.551254 -113.081249 296 29610ft 385kts
20-Oct-19 19:57 33.592730 -113.200417 296 32114ft 388kts
20-Oct-19 19:58 33.634046 -113.319457 295 34002ft 395kts
20-Oct-19 19:59 33.675903 -113.440651 295 34010ft 387kts
20-Oct-19 20:00 33.717191 -113.560523 295 34011ft 392kts
20-Oct-19 20:01 33.758386 -113.680687 295 34016ft 390kts
20-Oct-19 20:02 33.799661 -113.801621 295 34017ft 391kts
20-Oct-19 20:03 33.840469 -113.922535 295 34014ft 390kts
20-Oct-19 20:04 33.881420 -114.043189 295 34011ft 390kts
20-Oct-19 20:05 33.914600 -114.167523 286 34000ft 396kts
20-Oct-19 20:06 33.936456 -114.297359 286 33991ft 397kts
20-Oct-19 20:07 33.947512 -114.362637 286 33932ft 398kts
20-Oct-19 20:08 33.969505 -114.493158 286 33990ft 399kts
20-Oct-19 20:10 33.991480 -114.624460 286 33989ft 401kts
20-Oct-19 20:11 34.013114 -114.755012 286 33993ft 395kts
20-Oct-19 20:12 34.034656 -114.885359 286 33995ft 399kts
20-Oct-19 20:13 34.056214 -115.016889 286 33996ft 399kts
20-Oct-19 20:14 34.077363 -115.148560 286 34011ft 401kts
20-Oct-19 20:15 34.098765 -115.280519 285 34024ft 403kts
20-Oct-19 20:16 34.120082 -115.412937 285 34044ft 406kts
20-Oct-19 20:17 34.141448 -115.546654 285 34051ft 406kts
20-Oct-19 20:18 34.160928 -115.680444 277 34067ft 412kts
20-Oct-19 20:19 34.151391 -115.819887 268 34061ft 421kts
20-Oct-19 20:20 34.137757 -115.959996 268 34057ft 420kts
20-Oct-19 20:21 34.124044 -116.099395 268 34060ft 419kts
20-Oct-19 20:22 34.110272 -116.239288 268 33641ft 428kts
20-Oct-19 20:23 34.095560 -116.380555 268 31865ft 419kts
20-Oct-19 20:24 34.080434 -116.521855 269 28883ft 429kts
20-Oct-19 20:25 34.066692 -116.656724 270 26600ft 398kts
20-Oct-19 20:26 34.054757 -116.786464 270 24216ft 377kts
20-Oct-19 20:27 34.042961 -116.908827 268 22020ft 367kts
20-Oct-19 20:27 34.029092 -117.012329 267 20168ft 367kts
20-Oct-19 20:29 34.012653 -117.149281 267 17747ft 341kts
20-Oct-19 20:30 33.998921 -117.264496 266 15709ft 343kts
20-Oct-19 20:31 33.985663 -117.376297 266 13713ft 333kts
20-Oct-19 20:31 33.975977 -117.470768 274 12076ft 338kts
20-Oct-19 20:32 33.992856 -117.575129 288 11801ft 309kts
20-Oct-19 20:34 34.018912 -117.693281 277 10212ft 295kts
20-Oct-19 20:34 34.015068 -117.772040 263 9268ft 272kts
20-Oct-19 20:35 34.005993 -117.863467 263 7898ft 277kts
20-Oct-19 20:36 33.996820 -117.957025 263 6470ft 278kts
20-Oct-19 20:37 33.988223 -118.043801 263 5125ft 262kts
20-Oct-19 20:38 33.980420 -118.122205 264 3984ft 245kts
20-Oct-19 20:39 33.973845 -118.191509 263 3660ft 226kts
20-Oct-19 20:40 33.966287 -118.262495 264 2470ft 210kts
20-Oct-19 20:41 33.960070 -118.324074 263 1422ft 156kts
20-Oct-19 20:42 33.954619 -118.377407 264 565ft 155kts
20-Oct-19 20:43 33.950151 -118.421233 262 123ft 59kts
20-Oct-19 20:44 33.947248 -118.427734 192 114ft 15kts
20-Oct-19 20:45 33.946565 -118.424982 82 117ft 9kts
20-Oct-19 20:46 33.947122 -118.419487 83 122ft 21kts
20-Oct-19 20:47 33.947900 -118.413232 82 126ft 16kts
20-Oct-19 20:48 33.948430 -118.408078 83 127ft 18kts
20-Oct-19 20:49 33.949110 -118.401160 108 120ft 3kts
20-Oct-19 20:50 33.947615 -118.400082 184 120ft 3kts
20-Oct-19 20:51 33.947337 -118.400521 259 121ft 0kts
20-Oct-19 20:52 33.947324 -118.400604 259 121ft 0kts

Navigation Log

Ident Type
Flight plan parsing failed, navigation log unavailable